createdAt,value
2018-04-20T00:02:16.684Z,13.20
2018-04-20T00:04:44.387Z,13.14
2018-04-20T00:07:12.961Z,13.14
2018-04-20T00:09:40.629Z,13.17
2018-04-20T00:12:08.254Z,13.19
2018-04-20T00:14:35.817Z,13.16
2018-04-20T00:17:03.362Z,13.14
2018-04-20T00:19:31.394Z,13.09
2018-04-20T00:21:59.046Z,13.00
2018-04-20T00:24:26.659Z,13.02
2018-04-20T00:26:54.159Z,13.00
2018-04-20T00:29:21.759Z,12.97
2018-04-20T00:31:49.434Z,12.86
2018-04-20T00:34:17.033Z,12.89
2018-04-20T00:36:44.587Z,12.84
2018-04-20T00:39:12.108Z,12.86
2018-04-20T00:41:39.602Z,12.83
2018-04-20T00:44:07.320Z,12.85
2018-04-20T00:46:34.866Z,12.89
2018-04-20T00:49:03.273Z,12.92
2018-04-20T00:51:30.958Z,12.91
2018-04-20T00:54:10.366Z,12.85
2018-04-20T00:56:37.896Z,12.68
2018-04-20T00:59:05.601Z,12.60
2018-04-20T01:01:34.455Z,12.67
2018-04-20T01:04:02.140Z,12.71
2018-04-20T01:06:29.732Z,12.67
2018-04-20T01:08:57.258Z,12.58
2018-04-20T01:11:24.836Z,12.53
2018-04-20T01:13:52.357Z,12.47
2018-04-20T01:16:19.891Z,12.45
2018-04-20T01:18:47.422Z,12.44
2018-04-20T01:21:15.126Z,12.45
2018-04-20T01:23:42.818Z,12.50
2018-04-20T01:26:10.364Z,12.51
2018-04-20T01:28:37.896Z,12.47
2018-04-20T01:31:05.403Z,12.47
2018-04-20T01:33:33.001Z,12.35
2018-04-20T01:36:01.441Z,12.35
2018-04-20T01:38:29.064Z,12.31
2018-04-20T01:40:56.636Z,12.29
2018-04-20T01:43:24.196Z,12.26
2018-04-20T01:45:51.774Z,12.25
2018-04-20T01:48:19.440Z,12.24
2018-04-20T01:50:46.971Z,12.22
2018-04-20T01:53:14.514Z,12.21
2018-04-20T01:55:42.173Z,12.27
2018-04-20T01:58:09.805Z,12.28
2018-04-20T02:00:37.299Z,12.24
2018-04-20T02:03:04.866Z,12.24
2018-04-20T02:05:35.311Z,12.24
2018-04-20T02:08:02.996Z,12.23
2018-04-20T02:10:30.688Z,12.18
2018-04-20T02:12:58.343Z,12.18
2018-04-20T02:15:25.927Z,12.13
2018-04-20T02:17:53.503Z,12.05
2018-04-20T02:20:21.044Z,11.91
2018-04-20T02:22:48.627Z,11.95
2018-04-20T02:25:16.261Z,12.00
2018-04-20T02:27:43.900Z,12.01
2018-04-20T02:30:11.426Z,12.02
2018-04-20T02:32:38.944Z,12.00
2018-04-20T02:35:06.681Z,11.97
2018-04-20T02:37:34.408Z,11.89
2018-04-20T02:40:02.079Z,11.79
2018-04-20T02:42:29.647Z,11.81
2018-04-20T02:44:57.228Z,11.83
2018-04-20T02:47:24.836Z,11.86
2018-04-20T02:49:52.507Z,11.81
2018-04-20T02:52:20.383Z,11.77
2018-04-20T02:54:48.408Z,11.72
2018-04-20T02:57:16.448Z,11.65
2018-04-20T02:59:44.415Z,11.67
2018-04-20T03:02:12.027Z,11.63
2018-04-20T03:04:39.648Z,11.59
2018-04-20T03:07:07.304Z,11.54
2018-04-20T03:09:35.692Z,11.54
2018-04-20T03:12:03.350Z,11.58
2018-04-20T03:14:31.012Z,11.59
2018-04-20T03:16:58.605Z,11.51
2018-04-20T03:19:26.207Z,11.45
2018-04-20T03:21:53.899Z,11.44
2018-04-20T03:24:21.538Z,11.49
2018-04-20T03:26:49.167Z,11.53
2018-04-20T03:31:50.669Z,11.45
2018-04-20T03:34:18.338Z,11.35
2018-04-20T03:36:45.956Z,11.35
2018-04-20T03:39:13.603Z,11.30
2018-04-20T03:41:41.239Z,11.34
2018-04-20T03:44:08.910Z,11.41
2018-04-20T03:46:36.556Z,11.38
2018-04-20T03:49:04.185Z,11.29
2018-04-20T03:51:31.894Z,11.26
2018-04-20T03:53:59.464Z,11.23
2018-04-20T03:56:27.195Z,11.24
2018-04-20T03:58:54.883Z,11.23
2018-04-20T04:01:22.537Z,11.26
2018-04-20T04:03:50.200Z,11.22
2018-04-20T04:06:17.878Z,11.23
2018-04-20T04:08:45.538Z,11.20
2018-04-20T04:11:13.356Z,11.19
2018-04-20T04:13:41.062Z,11.15
2018-04-20T04:16:08.731Z,11.18
2018-04-20T04:18:48.153Z,11.16
2018-04-20T04:21:27.460Z,11.11
2018-04-20T04:24:07.654Z,11.00
2018-04-20T04:26:46.897Z,10.96
2018-04-20T04:29:14.448Z,11.00
2018-04-20T04:31:42.027Z,11.02
2018-04-20T04:34:11.535Z,11.03
2018-04-20T04:36:39.184Z,11.07
2018-04-20T04:39:06.810Z,11.03
2018-04-20T04:41:34.492Z,11.00
2018-04-20T04:44:02.166Z,10.99
2018-04-20T04:46:29.797Z,10.83
2018-04-20T04:48:57.443Z,11.05
2018-04-20T04:51:25.130Z,11.06
2018-04-20T04:53:52.734Z,11.12
2018-04-20T04:56:20.352Z,11.15
2018-04-20T04:58:47.973Z,11.19
2018-04-20T05:01:15.643Z,11.21
2018-04-20T05:03:43.169Z,11.31
2018-04-20T05:08:44.545Z,11.36
2018-04-20T05:11:13.947Z,11.42
2018-04-20T05:13:41.558Z,11.44
2018-04-20T05:16:09.226Z,11.48
2018-04-20T05:18:36.853Z,11.53
2018-04-20T05:21:04.537Z,11.61
2018-04-20T05:23:32.187Z,11.70
2018-04-20T05:25:59.931Z,11.77
2018-04-20T05:28:27.621Z,11.87
2018-04-20T05:30:55.206Z,11.95
2018-04-20T05:33:22.848Z,12.04
2018-04-20T05:35:50.451Z,12.07
2018-04-20T05:38:18.119Z,12.18
2018-04-20T05:40:45.741Z,12.25
2018-04-20T05:43:13.695Z,12.37
2018-04-20T05:45:41.460Z,12.48
2018-04-20T05:48:09.100Z,12.58
2018-04-20T05:50:36.831Z,12.69
2018-04-20T05:53:04.473Z,12.83
2018-04-20T05:55:32.080Z,12.96
2018-04-20T05:57:59.761Z,13.08
2018-04-20T06:00:27.489Z,13.20
2018-04-20T06:02:55.123Z,13.32
2018-04-20T06:05:22.838Z,13.44
2018-04-20T06:07:50.474Z,13.56
2018-04-20T06:10:18.165Z,13.68
2018-04-20T06:12:45.835Z,13.81
2018-04-20T06:15:14.533Z,13.91
2018-04-20T06:17:42.326Z,14.01
2018-04-20T06:20:09.950Z,14.13
2018-04-20T06:22:37.579Z,14.24
2018-04-20T06:25:05.369Z,14.36
2018-04-20T06:27:33.133Z,14.48
2018-04-20T06:30:00.794Z,14.60
2018-04-20T06:32:28.502Z,14.74
2018-04-20T06:34:56.168Z,14.89
2018-04-20T06:37:24.689Z,15.04
2018-04-20T06:39:52.986Z,15.23
2018-04-20T06:42:20.820Z,15.41
2018-04-20T06:44:48.431Z,15.59
2018-04-20T06:47:16.178Z,15.77
2018-04-20T06:49:43.965Z,15.96
2018-04-20T06:52:11.626Z,16.17
2018-04-20T06:54:39.392Z,16.37
2018-04-20T06:57:07.110Z,16.59
2018-04-20T06:59:35.479Z,16.78
2018-04-20T07:02:03.536Z,16.98
2018-04-20T07:04:31.215Z,17.12
2018-04-20T07:06:59.561Z,17.28
2018-04-20T07:09:28.191Z,17.45
2018-04-20T07:11:55.939Z,17.61
2018-04-20T07:14:23.574Z,17.75
2018-04-20T07:16:51.412Z,17.88
2018-04-20T07:19:19.069Z,18.03
2018-04-20T07:21:46.783Z,18.17
2018-04-20T07:24:15.474Z,18.32
2018-04-20T07:26:43.195Z,18.45
2018-04-20T07:29:11.884Z,18.71
2018-04-20T07:31:40.572Z,18.79
2018-04-20T07:34:08.244Z,18.90
2018-04-20T07:36:39.726Z,19.03
2018-04-20T07:39:07.408Z,19.13
2018-04-20T07:41:35.171Z,19.23
2018-04-20T07:44:02.794Z,19.29
2018-04-20T07:46:30.496Z,19.41
2018-04-20T07:48:58.166Z,19.49
2018-04-20T07:51:26.727Z,19.59
2018-04-20T07:56:28.678Z,19.81
2018-04-20T07:58:56.289Z,19.90
2018-04-20T08:01:23.908Z,19.94
2018-04-20T08:03:52.063Z,19.95
2018-04-20T08:06:20.122Z,20.00
2018-04-20T08:08:47.886Z,20.06
2018-04-20T08:11:15.580Z,20.05
2018-04-20T08:13:43.205Z,20.18
2018-04-20T08:16:10.906Z,20.19
2018-04-20T08:18:39.093Z,20.28
2018-04-20T08:21:06.814Z,20.38
2018-04-20T08:23:34.613Z,20.46
2018-04-20T08:26:02.294Z,20.55
2018-04-20T08:28:30.779Z,20.64
2018-04-20T08:30:59.356Z,20.77
2018-04-20T08:33:27.080Z,20.89
2018-04-20T08:35:54.708Z,20.94
2018-04-20T08:38:22.351Z,21.07
2018-04-20T08:40:49.992Z,21.18
2018-04-20T08:43:17.739Z,21.21
2018-04-20T08:45:45.404Z,21.21
2018-04-20T08:48:13.106Z,21.18
2018-04-20T08:50:41.841Z,21.23
2018-04-20T08:53:09.807Z,21.23
2018-04-20T08:55:37.593Z,21.34
2018-04-20T08:58:05.211Z,21.52
2018-04-20T09:00:32.906Z,21.71
2018-04-20T09:03:00.482Z,21.84
2018-04-20T09:05:28.155Z,21.93
2018-04-20T09:07:58.717Z,22.00
2018-04-20T09:13:01.209Z,22.24
2018-04-20T09:15:28.891Z,22.24
2018-04-20T09:17:56.637Z,22.22
2018-04-20T09:20:24.324Z,22.34
2018-04-20T09:22:52.588Z,22.55
2018-04-20T09:25:20.260Z,22.63
2018-04-20T09:27:48.965Z,22.61
2018-04-20T09:30:16.636Z,22.71
2018-04-20T09:32:44.319Z,22.79
2018-04-20T09:35:13.127Z,22.82
2018-04-20T09:37:40.904Z,22.94
2018-04-20T09:40:08.598Z,23.10
2018-04-20T09:42:37.389Z,23.30
2018-04-20T09:45:08.389Z,23.43
2018-04-20T09:47:36.049Z,23.46
2018-04-20T09:50:03.720Z,23.46
2018-04-20T09:52:31.337Z,23.46
2018-04-20T09:54:58.932Z,23.48
2018-04-20T09:57:26.591Z,23.43
2018-04-20T09:59:54.275Z,23.46
2018-04-20T10:02:32.920Z,23.52
2018-04-20T10:05:01.510Z,23.60
2018-04-20T10:07:29.125Z,23.74
2018-04-20T10:12:29.535Z,23.95
2018-04-20T10:14:57.177Z,24.18
2018-04-20T10:17:25.975Z,24.30
2018-04-20T10:19:53.663Z,24.58
2018-04-20T10:22:21.264Z,24.81
2018-04-20T10:24:48.899Z,24.95
2018-04-20T10:29:48.805Z,25.19
2018-04-20T10:32:16.454Z,25.32
2018-04-20T10:34:44.189Z,25.49
2018-04-20T10:37:12.035Z,25.51
2018-04-20T10:39:41.032Z,25.47
2018-04-20T10:42:08.743Z,25.53
2018-04-20T10:44:36.341Z,25.58
2018-04-20T10:47:04.930Z,25.73
2018-04-20T10:49:33.412Z,25.74
2018-04-20T10:52:01.080Z,25.52
2018-04-20T10:54:28.838Z,25.51
2018-04-20T10:56:56.445Z,25.56
2018-04-20T10:59:24.255Z,25.58
2018-04-20T11:01:51.949Z,25.62
2018-04-20T11:04:19.737Z,25.60
2018-04-20T11:06:47.336Z,25.80
2018-04-20T11:09:16.090Z,26.00
2018-04-20T11:11:44.705Z,26.15
2018-04-20T11:14:13.285Z,26.32
2018-04-20T11:16:40.915Z,26.37
2018-04-20T11:19:16.310Z,26.40
2018-04-20T11:21:45.983Z,26.03
2018-04-20T11:24:13.677Z,25.76
2018-04-20T11:26:43.052Z,25.71
2018-04-20T11:29:14.147Z,25.90
2018-04-20T11:31:46.689Z,25.97
2018-04-20T11:34:15.860Z,26.13
2018-04-20T11:36:44.313Z,26.23
2018-04-20T11:39:13.262Z,26.46
2018-04-20T11:41:46.153Z,26.55
2018-04-20T11:44:14.699Z,26.52
2018-04-20T11:46:42.354Z,26.52
2018-04-20T11:49:10.104Z,26.22
2018-04-20T11:51:38.882Z,26.28
2018-04-20T11:54:20.331Z,26.36
2018-04-20T11:56:47.996Z,26.26
2018-04-20T11:59:15.662Z,26.30
2018-04-20T12:01:49.884Z,26.41
2018-04-20T12:04:17.613Z,26.42
2018-04-20T12:06:45.361Z,26.57
2018-04-20T12:09:23.026Z,26.65
2018-04-20T12:11:51.929Z,26.88
2018-04-20T12:14:21.082Z,26.99
2018-04-20T12:16:50.418Z,26.86
2018-04-20T12:19:18.932Z,26.83
2018-04-20T12:21:47.465Z,26.77
2018-04-20T12:24:15.720Z,26.58
2018-04-20T12:26:43.391Z,26.72
2018-04-20T12:29:12.589Z,26.74
2018-04-20T12:31:41.471Z,26.82
2018-04-20T12:34:10.583Z,26.91
2018-04-20T12:36:38.250Z,27.08
2018-04-20T12:39:07.284Z,27.02
2018-04-20T12:41:41.896Z,27.12
2018-04-20T12:44:12.273Z,27.18
2018-04-20T12:46:39.869Z,27.11
2018-04-20T12:49:07.575Z,27.15
2018-04-20T12:51:35.388Z,27.06
2018-04-20T12:54:03.035Z,27.23
2018-04-20T12:56:30.722Z,27.44
2018-04-20T12:58:58.413Z,27.49
2018-04-20T13:01:26.023Z,27.32
2018-04-20T13:03:54.388Z,27.45
2018-04-20T13:06:22.009Z,27.47
2018-04-20T13:08:49.773Z,27.22
2018-04-20T13:11:17.349Z,27.15
2018-04-20T13:13:45.010Z,27.28
2018-04-20T13:16:13.596Z,27.38
2018-04-20T13:18:41.280Z,27.62
2018-04-20T13:21:08.899Z,27.78
2018-04-20T13:23:36.641Z,28.12
2018-04-20T13:26:05.439Z,28.24
2018-04-20T13:28:33.165Z,28.37
2018-04-20T13:31:02.797Z,28.47
2018-04-20T13:33:30.464Z,28.54
2018-04-20T13:35:58.227Z,28.62
2018-04-20T13:38:26.182Z,28.62
2018-04-20T13:40:53.908Z,28.59
2018-04-20T13:43:21.668Z,28.39
2018-04-20T13:45:50.262Z,28.08
2018-04-20T13:48:17.952Z,27.85
2018-04-20T13:50:49.018Z,27.99
2018-04-20T13:53:16.729Z,28.15
2018-04-20T13:55:49.316Z,28.27
2018-04-20T13:58:16.999Z,28.48
2018-04-20T14:00:44.663Z,28.69
2018-04-20T14:03:12.473Z,28.80
2018-04-20T14:05:40.301Z,28.87
2018-04-20T14:08:07.942Z,28.98
2018-04-20T14:10:36.770Z,29.11
2018-04-20T14:13:04.449Z,28.98
2018-04-20T14:15:32.614Z,29.03
2018-04-20T14:18:00.297Z,29.12
2018-04-20T14:20:27.973Z,29.24
2018-04-20T14:22:55.818Z,29.09
2018-04-20T14:25:27.664Z,29.08
2018-04-20T14:27:55.285Z,29.14
2018-04-20T14:30:23.194Z,29.11
2018-04-20T14:32:50.890Z,28.93
2018-04-20T14:35:19.420Z,28.77
2018-04-20T14:37:48.285Z,28.73
2018-04-20T14:40:15.974Z,28.75
2018-04-20T14:45:17.325Z,28.98
2018-04-20T14:47:45.129Z,29.08
2018-04-20T14:50:12.865Z,29.14
2018-04-20T14:52:47.743Z,28.77
2018-04-20T14:55:16.440Z,28.58
2018-04-20T14:57:44.278Z,28.64
2018-04-20T15:00:12.807Z,28.77
2018-04-20T15:02:40.512Z,28.88
2018-04-20T15:05:13.082Z,28.76
2018-04-20T15:07:40.755Z,28.76
2018-04-20T15:10:08.408Z,28.84
2018-04-20T15:12:37.504Z,28.95
2018-04-20T15:15:05.795Z,29.06
2018-04-20T15:17:33.443Z,28.84
2018-04-20T15:20:01.220Z,28.78
2018-04-20T15:22:29.406Z,28.70
2018-04-20T15:24:57.041Z,28.75
2018-04-20T15:27:24.846Z,28.81
2018-04-20T15:29:52.635Z,28.83
2018-04-20T15:32:20.218Z,28.88
2018-04-20T15:34:48.922Z,28.88
2018-04-20T15:37:16.523Z,28.97
2018-04-20T15:39:44.172Z,29.06
2018-04-20T15:42:12.130Z,29.07
2018-04-20T15:44:39.797Z,29.07
2018-04-20T15:47:07.580Z,29.06
2018-04-20T15:49:35.154Z,29.08
2018-04-20T15:52:02.838Z,29.09
2018-04-20T15:54:30.503Z,28.97
2018-04-20T15:56:58.134Z,28.94
2018-04-20T15:59:26.687Z,28.88
2018-04-20T16:01:54.464Z,28.88
2018-04-20T16:04:23.473Z,28.81
2018-04-20T16:06:51.173Z,28.77
2018-04-20T16:09:18.868Z,28.73
2018-04-20T16:11:46.654Z,28.62
2018-04-20T16:14:14.408Z,28.54
2018-04-20T16:16:42.102Z,28.55
2018-04-20T16:19:09.715Z,28.56
2018-04-20T16:21:38.244Z,28.53
2018-04-20T16:24:05.861Z,28.53
2018-04-20T16:26:33.715Z,28.38
2018-04-20T16:29:01.345Z,28.30
2018-04-20T16:31:28.987Z,28.15
2018-04-20T16:36:30.365Z,27.95
2018-04-20T16:38:58.117Z,27.93
2018-04-20T16:41:25.738Z,27.80
2018-04-20T16:43:53.389Z,27.77
2018-04-20T16:46:21.079Z,27.74
2018-04-20T16:48:48.699Z,27.64
2018-04-20T16:51:17.683Z,27.45
2018-04-20T16:53:45.340Z,27.13
2018-04-20T16:56:13.584Z,26.59
2018-04-20T16:58:41.246Z,26.19
2018-04-20T17:01:08.904Z,26.09
2018-04-20T17:03:36.546Z,25.83
2018-04-20T17:06:04.213Z,25.48
2018-04-20T17:08:31.932Z,25.04
2018-04-20T17:10:59.611Z,24.56
2018-04-20T17:13:27.229Z,24.25
2018-04-20T17:15:54.857Z,23.97
2018-04-20T17:18:22.577Z,23.77
2018-04-20T17:20:50.177Z,23.57
2018-04-20T17:23:17.840Z,23.47
2018-04-20T17:25:45.527Z,23.40
2018-04-20T17:28:13.171Z,23.27
2018-04-20T17:30:41.744Z,23.25
2018-04-20T17:33:09.495Z,23.17
2018-04-20T17:35:37.126Z,23.05
2018-04-20T17:40:39.440Z,23.20
2018-04-20T17:43:07.092Z,23.17
2018-04-20T17:45:34.786Z,22.76
2018-04-20T17:48:02.445Z,22.44
2018-04-20T17:50:30.048Z,22.16
2018-04-20T17:52:57.773Z,21.94
2018-04-20T17:55:25.377Z,21.55
2018-04-20T17:57:53.037Z,21.31
2018-04-20T18:00:20.675Z,21.19
2018-04-20T18:02:49.766Z,21.10
2018-04-20T18:05:17.354Z,20.96
2018-04-20T18:07:44.943Z,20.88
2018-04-20T18:10:12.540Z,20.74
2018-04-20T18:12:40.176Z,20.46
2018-04-20T18:15:07.794Z,20.32
2018-04-20T18:17:35.573Z,20.19
2018-04-20T18:20:03.193Z,20.11
2018-04-20T18:22:30.919Z,20.04
2018-04-20T18:24:58.598Z,20.04
2018-04-20T18:27:27.251Z,20.02
2018-04-20T18:29:55.147Z,20.05
2018-04-20T18:32:22.772Z,20.04
2018-04-20T18:34:50.429Z,19.71
2018-04-20T18:37:18.121Z,19.56
2018-04-20T18:39:47.104Z,19.47
2018-04-20T18:42:14.682Z,19.26
2018-04-20T18:44:42.606Z,19.20
2018-04-20T18:47:11.373Z,19.14
2018-04-20T18:49:39.695Z,19.14
2018-04-20T18:52:07.468Z,19.22
2018-04-20T18:54:35.166Z,19.27
2018-04-20T18:57:04.727Z,19.33
2018-04-20T18:59:33.291Z,19.36
2018-04-20T19:02:07.184Z,19.27
2018-04-20T19:04:35.020Z,19.02
2018-04-20T19:07:02.752Z,18.76
2018-04-20T19:09:30.532Z,18.62
2018-04-20T19:11:58.266Z,18.63
2018-04-20T19:14:26.013Z,18.52
2018-04-20T19:16:54.644Z,18.54
2018-04-20T19:19:22.287Z,18.57
2018-04-20T19:21:49.984Z,18.62
2018-04-20T19:24:17.542Z,18.57
2018-04-20T19:26:45.362Z,18.34
2018-04-20T19:29:12.975Z,18.24
2018-04-20T19:31:41.161Z,18.36
2018-04-20T19:34:10.533Z,18.37
2018-04-20T19:36:39.096Z,18.30
2018-04-20T19:39:06.757Z,18.13
2018-04-20T19:41:35.453Z,18.04
2018-04-20T19:44:02.956Z,17.90
2018-04-20T19:46:30.515Z,17.71
2018-04-20T19:49:00.609Z,17.62
2018-04-20T19:51:33.476Z,17.56
2018-04-20T19:54:01.212Z,17.48
2018-04-20T19:56:29.123Z,17.52
2018-04-20T19:58:56.775Z,17.47
2018-04-20T20:01:24.469Z,17.24
2018-04-20T20:03:52.071Z,17.18
2018-04-20T20:06:19.661Z,17.03
2018-04-20T20:08:47.320Z,16.84
2018-04-20T20:11:15.321Z,16.59
2018-04-20T20:13:42.884Z,16.30
2018-04-20T20:16:10.421Z,16.19
2018-04-20T20:18:38.027Z,16.28
2018-04-20T20:21:05.736Z,16.37
2018-04-20T20:26:07.122Z,16.42
2018-04-20T20:28:34.917Z,16.32
2018-04-20T20:31:02.527Z,16.27
2018-04-20T20:33:30.170Z,16.34
2018-04-20T20:35:57.833Z,16.42
2018-04-20T20:38:25.496Z,16.47
2018-04-20T20:40:53.131Z,16.50
2018-04-20T20:43:20.778Z,16.52
2018-04-20T20:45:48.406Z,16.46
2018-04-20T20:48:16.040Z,16.41
2018-04-20T20:50:43.709Z,16.28
2018-04-20T20:53:14.482Z,16.21
2018-04-20T20:55:42.022Z,16.14
2018-04-20T20:58:09.667Z,16.02
2018-04-20T21:00:38.328Z,15.87
2018-04-20T21:03:06.014Z,15.75
2018-04-20T21:05:33.817Z,15.69
2018-04-20T21:08:01.348Z,15.64
2018-04-20T21:10:28.896Z,15.54
2018-04-20T21:12:56.502Z,15.55
2018-04-20T21:15:24.033Z,15.55
2018-04-20T21:17:51.657Z,15.54
2018-04-20T21:20:19.311Z,15.58
2018-04-20T21:22:47.480Z,15.54
2018-04-20T21:25:15.239Z,15.52
2018-04-20T21:27:42.924Z,15.47
2018-04-20T21:30:10.495Z,15.45
2018-04-20T21:32:38.047Z,15.33
2018-04-20T21:35:05.614Z,15.34
2018-04-20T21:37:33.216Z,15.25
2018-04-20T21:40:00.753Z,15.21
2018-04-20T21:42:28.321Z,15.10
2018-04-20T21:44:55.853Z,15.04
2018-04-20T21:47:24.237Z,15.00
2018-04-20T21:49:51.848Z,14.94
2018-04-20T21:52:19.510Z,14.88
2018-04-20T21:54:47.140Z,14.84
2018-04-20T21:57:14.901Z,14.81
2018-04-20T21:59:43.353Z,14.76
2018-04-20T22:02:10.929Z,14.64
2018-04-20T22:04:40.097Z,14.45
2018-04-20T22:07:07.891Z,14.34
2018-04-20T22:09:37.381Z,14.37
2018-04-20T22:12:06.134Z,14.45
2018-04-20T22:14:33.783Z,14.47
2018-04-20T22:17:01.408Z,14.49
2018-04-20T22:19:28.986Z,14.33
2018-04-20T22:21:56.619Z,14.19
2018-04-20T22:24:24.330Z,14.14
2018-04-20T22:26:51.976Z,14.13
2018-04-20T22:29:19.611Z,14.04
2018-04-20T22:31:48.029Z,13.94
2018-04-20T22:34:15.731Z,13.93
2018-04-20T22:36:43.310Z,13.87
2018-04-20T22:39:14.614Z,13.86
2018-04-20T22:41:42.384Z,13.80
2018-04-20T22:44:10.006Z,13.65
2018-04-20T22:46:37.672Z,13.57
2018-04-20T22:49:05.340Z,13.60
2018-04-20T22:51:32.909Z,13.59
2018-04-20T22:54:00.529Z,13.47
2018-04-20T22:56:28.273Z,13.38
2018-04-20T22:58:55.872Z,13.32
2018-04-20T23:01:23.549Z,13.24
2018-04-20T23:03:51.241Z,13.20
2018-04-20T23:06:18.896Z,13.20
2018-04-20T23:08:46.559Z,13.21
2018-04-20T23:11:14.647Z,13.19
2018-04-20T23:13:42.273Z,13.16
2018-04-20T23:16:09.822Z,13.22
2018-04-20T23:18:37.357Z,13.18
2018-04-20T23:21:04.971Z,13.11
2018-04-20T23:23:32.689Z,13.08
2018-04-20T23:26:00.482Z,12.99
2018-04-20T23:28:28.185Z,12.96
2018-04-20T23:30:55.802Z,12.94
2018-04-20T23:33:24.377Z,12.92
2018-04-20T23:36:08.313Z,12.85
2018-04-20T23:38:35.895Z,12.83
2018-04-20T23:41:03.565Z,12.83
2018-04-20T23:43:31.157Z,12.81
2018-04-20T23:45:58.817Z,12.66
2018-04-20T23:48:26.465Z,12.63
2018-04-20T23:50:54.086Z,12.67
2018-04-20T23:53:21.754Z,12.65
2018-04-20T23:55:49.432Z,12.64
2018-04-20T23:58:18.393Z,12.62
